This is the latest recevied weather packets stored in our database for station/object SQ7KHZ-10. If no packets are shown the sender has not sent any weather packets the latest 1 day(s).
| Time | Temp. | Humidity | Pressure | Rain* | Wind** | Luminosity | Snow |
|---|---|---|---|---|---|---|---|
| 1777971844 | 24.44° C | 44% | 1009.2 hPa | 0 mm | 0 m/s | - | - |
| 1777970623 | 23.89° C | 44% | 1009.5 hPa | 0 mm | 0 m/s | - | - |
| 1777969414 | 24.44° C | 43% | 1009.6 hPa | 0 mm | 1.34 m/s, 145° | - | - |
| 1777968207 | 23.89° C | 40% | 1009.7 hPa | 0 mm | 1.79 m/s, 152° | - | - |
| 1777966999 | 23.33° C | 40% | 1009.8 hPa | 0 mm | 2.68 m/s, 128° | - | - |
| 1777965792 | 22.78° C | 39% | 1009.8 hPa | 0 mm | 1.34 m/s, 199° | - | - |
| 1777964582 | 21.67° C | 43% | 1010 hPa | 0 mm | 0.89 m/s, 147° | - | - |
| 1777963372 | 20.56° C | 44% | 1010.1 hPa | 0 mm | 1.79 m/s, 150° | - | - |
| 1777962151 | 19.44° C | 51% | 1010.2 hPa | 0 mm | 0 m/s | - | - |
| 1777960943 | 17.78° C | 58% | 1010.3 hPa | 0 mm | 0 m/s | - | - |
| 1777959734 | 15.56° C | 61% | 1010.4 hPa | 0 mm | 0.89 m/s, 168° | - | - |
| 1777958522 | 14.44° C | 64% | 1010.5 hPa | 0 mm | 0.89 m/s, 106° | - | - |
| 1777957314 | 12.78° C | 71% | 1010.5 hPa | 0 mm | 0 m/s | - | - |
| 1777956097 | 12.22° C | 76% | 1010.5 hPa | 0 mm | 0 m/s | - | - |
| 1777954895 | 11.67° C | 78% | 1010.5 hPa | 0 mm | 0 m/s | - | - |
| 1777953694 | 11.11° C | 78% | 1010.5 hPa | 0 mm | 0 m/s | - | - |
| 1777952493 | 10° C | 82% | 1010.5 hPa | 0 mm | 0 m/s | - | - |
| 1777951293 | 9.44° C | 84% | 1010.6 hPa | 0 mm | 0 m/s | - | - |
| 1777950069 | 9.44° C | 85% | 1010.7 hPa | 0 mm | 0 m/s | - | - |
| 1777948857 | 9.44° C | 86% | 1010.8 hPa | 0 mm | 0 m/s | - | - |
| 1777947645 | 9.44° C | 87% | 1011 hPa | 0 mm | 0 m/s | - | - |
| 1777946445 | 9.44° C | 88% | 1011 hPa | 0 mm | 0 m/s | - | - |
* Rain latest hour (hover to see other rain measurements)
** Current wind speed in m/s (hover to see current wind gust speed)